Time,TemperatureF,DewpointF,PressureIn,WindDirection,WindDirectionDegrees,WindSpeedMPH,WindSpeedGustMPH,Humidity,HourlyPrecipIn,Conditions,Clouds,dailyrainin,SoftwareType,DateUTC
2013-04-20 00:00:00,62.0,40.0,-100.00,ENE,67,8.0,-999.0,44,0.00,,,-99.99,,2013-04-20 05:00:00,
2013-04-20 00:22:00,62.0,40.0,-100.00,ENE,67,8.0,-999.0,44,0.00,,,-99.99,,2013-04-20 05:22:00,
2013-04-20 00:32:00,62.0,40.0,-100.00,ENE,67,8.0,-999.0,44,0.00,,,-99.99,,2013-04-20 05:32:00,
2013-04-20 00:43:00,62.0,40.0,-100.00,ENE,67,8.0,-999.0,44,0.00,,,-99.99,,2013-04-20 05:43:00,
2013-04-20 00:52:00,62.0,40.0,-100.00,ENE,67,8.0,-999.0,44,0.00,,,-99.99,,2013-04-20 05:52:00,
2013-04-20 01:00:00,59.0,45.0,-100.00,ENE,58,9.0,-999.0,58,0.00,,,-99.99,,2013-04-20 06:00:00,
2013-04-20 01:21:00,59.0,45.0,-100.00,ENE,58,9.0,-999.0,58,0.00,,,-99.99,,2013-04-20 06:21:00,
2013-04-20 01:32:00,59.0,45.0,-100.00,ENE,58,9.0,-999.0,58,0.00,,,-99.99,,2013-04-20 06:32:00,
2013-04-20 01:42:00,59.0,45.0,-100.00,ENE,58,9.0,-999.0,58,0.00,,,-99.99,,2013-04-20 06:42:00,
2013-04-20 01:52:00,59.0,45.0,-100.00,ENE,58,9.0,-999.0,58,0.00,,,-99.99,,2013-04-20 06:52:00,
2013-04-20 02:00:00,59.0,45.0,-100.00,NE,51,10.0,-999.0,59,0.00,,,-99.99,,2013-04-20 07:00:00,
2013-04-20 02:21:00,59.0,45.0,-100.00,NE,51,10.0,-999.0,59,0.00,,,-99.99,,2013-04-20 07:21:00,
2013-04-20 02:32:00,59.0,45.0,-100.00,NE,51,10.0,-999.0,59,0.00,,,-99.99,,2013-04-20 07:32:00,
2013-04-20 02:42:00,59.0,45.0,-100.00,NE,51,10.0,-999.0,59,0.00,,,-99.99,,2013-04-20 07:42:00,
2013-04-20 02:52:00,59.0,45.0,-100.00,NE,51,10.0,-999.0,59,0.00,,,-99.99,,2013-04-20 07:52:00,
2013-04-20 03:00:00,58.0,46.0,-100.00,NE,53,8.0,-999.0,64,0.00,,,-99.99,,2013-04-20 08:00:00,
2013-04-20 03:21:00,58.0,46.0,-100.00,NE,53,8.0,-999.0,64,0.00,,,-99.99,,2013-04-20 08:21:00,
2013-04-20 03:32:00,58.0,46.0,-100.00,NE,53,8.0,-999.0,64,0.00,,,-99.99,,2013-04-20 08:32:00,
2013-04-20 03:42:00,58.0,46.0,-100.00,NE,53,8.0,-999.0,64,0.00,,,-99.99,,2013-04-20 08:42:00,
2013-04-20 03:52:00,58.0,46.0,-100.00,NE,53,8.0,-999.0,64,0.00,,,-99.99,,2013-04-20 08:52:00,
2013-04-20 04:00:00,57.0,47.0,-100.00,NE,53,4.0,-999.0,68,0.00,,,-99.99,,2013-04-20 09:00:00,
2013-04-20 04:21:00,57.0,47.0,-100.00,NE,53,4.0,-999.0,68,0.00,,,-99.99,,2013-04-20 09:21:00,
2013-04-20 04:33:00,57.0,47.0,-100.00,NE,53,4.0,-999.0,68,0.00,,,-99.99,,2013-04-20 09:33:00,
2013-04-20 04:43:00,57.0,47.0,-100.00,NE,53,4.0,-999.0,68,0.00,,,-99.99,,2013-04-20 09:43:00,
2013-04-20 04:53:00,57.0,47.0,-100.00,NE,53,4.0,-999.0,68,0.00,,,-99.99,,2013-04-20 09:53:00,
2013-04-20 05:00:00,57.0,46.0,-100.00,NE,36,5.0,-999.0,68,0.00,,,-99.99,,2013-04-20 10:00:00,
2013-04-20 05:23:00,57.0,46.0,-100.00,NE,36,5.0,-999.0,68,0.00,,,-99.99,,2013-04-20 10:23:00,
2013-04-20 05:33:00,57.0,46.0,-100.00,NE,36,5.0,-999.0,68,0.00,,,-99.99,,2013-04-20 10:33:00,
2013-04-20 05:42:00,57.0,46.0,-100.00,NE,36,5.0,-999.0,68,0.00,,,-99.99,,2013-04-20 10:42:00,
2013-04-20 05:53:00,57.0,46.0,-100.00,NE,36,5.0,-999.0,68,0.00,,,-99.99,,2013-04-20 10:53:00,
2013-04-20 06:00:00,55.0,48.0,-100.00,North,350,8.0,-999.0,76,0.00,,,-99.99,,2013-04-20 11:00:00,
2013-04-20 06:23:00,55.0,48.0,-100.00,North,350,8.0,-999.0,76,0.00,,,-99.99,,2013-04-20 11:23:00,
2013-04-20 06:32:00,55.0,48.0,-100.00,North,350,8.0,-999.0,76,0.00,,,-99.99,,2013-04-20 11:32:00,
2013-04-20 06:42:00,55.0,48.0,-100.00,North,350,8.0,-999.0,76,0.00,,,-99.99,,2013-04-20 11:42:00,
2013-04-20 06:53:00,55.0,48.0,-100.00,North,350,8.0,-999.0,76,0.00,,,-99.99,,2013-04-20 11:53:00,
2013-04-20 07:00:00,54.0,46.0,-100.00,NNE,22,10.0,-999.0,74,0.00,,,-99.99,,2013-04-20 12:00:00,
2013-04-20 07:22:00,54.0,46.0,-100.00,NNE,22,10.0,-999.0,74,0.00,,,-99.99,,2013-04-20 12:22:00,
2013-04-20 07:32:00,54.0,46.0,-100.00,NNE,22,10.0,-999.0,74,0.00,,,-99.99,,2013-04-20 12:32:00,
2013-04-20 07:42:00,54.0,46.0,-100.00,NNE,22,10.0,-999.0,74,0.00,,,-99.99,,2013-04-20 12:42:00,
2013-04-20 07:52:00,54.0,46.0,-100.00,NNE,22,10.0,-999.0,74,0.00,,,-99.99,,2013-04-20 12:52:00,
2013-04-20 08:00:00,53.0,46.0,-100.00,NNE,31,12.0,-999.0,78,0.00,,,-99.99,,2013-04-20 13:00:00,
2013-04-20 08:21:00,53.0,46.0,-100.00,NNE,31,12.0,-999.0,78,0.00,,,-99.99,,2013-04-20 13:21:00,
2013-04-20 08:32:00,53.0,46.0,-100.00,NNE,31,12.0,-999.0,78,0.00,,,-99.99,,2013-04-20 13:32:00,
2013-04-20 08:42:00,53.0,46.0,-100.00,NNE,31,12.0,-999.0,78,0.00,,,-99.99,,2013-04-20 13:42:00,
2013-04-20 08:52:00,53.0,46.0,-100.00,NNE,31,12.0,-999.0,78,0.00,,,-99.99,,2013-04-20 13:52:00,
2013-04-20 09:00:00,57.0,47.0,-100.00,NNE,30,12.0,-999.0,67,0.00,,,-99.99,,2013-04-20 14:00:00,
2013-04-20 09:21:00,57.0,47.0,-100.00,NNE,30,12.0,-999.0,67,0.00,,,-99.99,,2013-04-20 14:21:00,
2013-04-20 09:32:00,57.0,47.0,-100.00,NNE,30,12.0,-999.0,67,0.00,,,-99.99,,2013-04-20 14:32:00,
2013-04-20 09:42:00,57.0,47.0,-100.00,NNE,30,12.0,-999.0,67,0.00,,,-99.99,,2013-04-20 14:42:00,
2013-04-20 09:52:00,57.0,47.0,-100.00,NNE,30,12.0,-999.0,67,0.00,,,-99.99,,2013-04-20 14:52:00,
2013-04-20 10:00:00,62.0,43.0,-100.00,ENE,71,8.0,-999.0,50,0.00,,,-99.99,,2013-04-20 15:00:00,
2013-04-20 10:21:00,62.0,43.0,-100.00,ENE,71,8.0,-999.0,50,0.00,,,-99.99,,2013-04-20 15:21:00,
2013-04-20 10:33:00,62.0,43.0,-100.00,ENE,71,8.0,-999.0,50,0.00,,,-99.99,,2013-04-20 15:33:00,
2013-04-20 10:43:00,62.0,43.0,-100.00,ENE,71,8.0,-999.0,50,0.00,,,-99.99,,2013-04-20 15:43:00,
2013-04-20 10:53:00,62.0,43.0,-100.00,ENE,71,8.0,-999.0,50,0.00,,,-99.99,,2013-04-20 15:53:00,
2013-04-20 11:00:00,63.0,43.0,-100.00,East,99,12.0,-999.0,47,0.00,,,-99.99,,2013-04-20 16:00:00,
2013-04-20 11:23:00,63.0,43.0,-100.00,East,99,12.0,-999.0,47,0.00,,,-99.99,,2013-04-20 16:23:00,
2013-04-20 11:32:00,63.0,43.0,-100.00,East,99,12.0,-999.0,47,0.00,,,-99.99,,2013-04-20 16:32:00,
2013-04-20 11:42:00,63.0,43.0,-100.00,East,99,12.0,-999.0,47,0.00,,,-99.99,,2013-04-20 16:42:00,
2013-04-20 11:53:00,63.0,43.0,-100.00,East,99,12.0,-999.0,47,0.00,,,-99.99,,2013-04-20 16:53:00,
2013-04-20 12:00:00,64.0,46.0,-100.00,ESE,102,12.0,-999.0,53,0.00,,,-99.99,,2013-04-20 17:00:00,
2013-04-20 12:23:00,64.0,46.0,-100.00,ESE,102,12.0,-999.0,53,0.00,,,-99.99,,2013-04-20 17:23:00,
2013-04-20 12:33:00,64.0,46.0,-100.00,ESE,102,12.0,-999.0,53,0.00,,,-99.99,,2013-04-20 17:33:00,
2013-04-20 12:42:00,64.0,46.0,-100.00,ESE,102,12.0,-999.0,53,0.00,,,-99.99,,2013-04-20 17:42:00,
2013-04-20 12:52:00,64.0,46.0,-100.00,ESE,102,12.0,-999.0,53,0.00,,,-99.99,,2013-04-20 17:52:00,
2013-04-20 13:00:00,64.0,48.0,-100.00,East,100,12.0,-999.0,55,0.00,,,-99.99,,2013-04-20 18:00:00,
2013-04-20 13:22:00,64.0,48.0,-100.00,East,100,12.0,-999.0,55,0.00,,,-99.99,,2013-04-20 18:22:00,
2013-04-20 13:32:00,64.0,48.0,-100.00,East,100,12.0,-999.0,55,0.00,,,-99.99,,2013-04-20 18:32:00,
2013-04-20 13:42:00,64.0,48.0,-100.00,East,100,12.0,-999.0,55,0.00,,,-99.99,,2013-04-20 18:42:00,
2013-04-20 13:52:00,64.0,48.0,-100.00,East,100,12.0,-999.0,55,0.00,,,-99.99,,2013-04-20 18:52:00,
2013-04-20 14:00:00,64.0,46.0,-100.00,ESE,112,11.0,-999.0,51,0.00,,,-99.99,,2013-04-20 19:00:00,
2013-04-20 14:21:00,64.0,46.0,-100.00,ESE,112,11.0,-999.0,51,0.00,,,-99.99,,2013-04-20 19:21:00,
2013-04-20 14:32:00,64.0,46.0,-100.00,ESE,112,11.0,-999.0,51,0.00,,,-99.99,,2013-04-20 19:32:00,
2013-04-20 14:42:00,64.0,46.0,-100.00,ESE,112,11.0,-999.0,51,0.00,,,-99.99,,2013-04-20 19:42:00,
2013-04-20 14:52:00,64.0,46.0,-100.00,ESE,112,11.0,-999.0,51,0.00,,,-99.99,,2013-04-20 19:52:00,
2013-04-20 15:00:00,65.0,49.0,-100.00,ESE,104,14.0,-999.0,57,0.00,,,-99.99,,2013-04-20 20:00:00,
2013-04-20 15:22:00,65.0,49.0,-100.00,ESE,104,14.0,-999.0,57,0.00,,,-99.99,,2013-04-20 20:22:00,
2013-04-20 15:32:00,65.0,49.0,-100.00,ESE,104,14.0,-999.0,57,0.00,,,-99.99,,2013-04-20 20:32:00,
2013-04-20 15:42:00,65.0,49.0,-100.00,ESE,104,14.0,-999.0,57,0.00,,,-99.99,,2013-04-20 20:42:00,
2013-04-20 15:52:00,65.0,49.0,-100.00,ESE,104,14.0,-999.0,57,0.00,,,-99.99,,2013-04-20 20:52:00,
2013-04-20 16:00:00,65.0,50.0,-100.00,ESE,109,15.0,-999.0,59,0.00,,,-99.99,,2013-04-20 21:00:00,
2013-04-20 16:22:00,65.0,50.0,-100.00,ESE,109,15.0,-999.0,59,0.00,,,-99.99,,2013-04-20 21:22:00,
2013-04-20 16:33:00,65.0,50.0,-100.00,ESE,109,15.0,-999.0,59,0.00,,,-99.99,,2013-04-20 21:33:00,
2013-04-20 16:43:00,65.0,50.0,-100.00,ESE,109,15.0,-999.0,59,0.00,,,-99.99,,2013-04-20 21:43:00,
2013-04-20 16:53:00,65.0,50.0,-100.00,ESE,109,15.0,-999.0,59,0.00,,,-99.99,,2013-04-20 21:53:00,
2013-04-20 17:00:00,65.0,51.0,-100.00,ESE,116,15.0,-999.0,60,0.00,,,-99.99,,2013-04-20 22:00:00,
2013-04-20 17:22:00,65.0,51.0,-100.00,ESE,116,15.0,-999.0,60,0.00,,,-99.99,,2013-04-20 22:22:00,
2013-04-20 17:32:00,65.0,51.0,-100.00,ESE,116,15.0,-999.0,60,0.00,,,-99.99,,2013-04-20 22:32:00,
2013-04-20 17:42:00,65.0,51.0,-100.00,ESE,116,15.0,-999.0,60,0.00,,,-99.99,,2013-04-20 22:42:00,
2013-04-20 17:53:00,65.0,51.0,-100.00,ESE,116,15.0,-999.0,60,0.00,,,-99.99,,2013-04-20 22:53:00,
2013-04-20 18:00:00,65.0,51.0,-100.00,ESE,114,16.0,-999.0,60,0.00,,,-99.99,,2013-04-20 23:00:00,
2013-04-20 18:22:00,65.0,51.0,-100.00,ESE,114,16.0,-999.0,60,0.00,,,-99.99,,2013-04-20 23:22:00,
2013-04-20 18:32:00,65.0,51.0,-100.00,ESE,114,16.0,-999.0,60,0.00,,,-99.99,,2013-04-20 23:32:00,
2013-04-20 18:42:00,65.0,51.0,-100.00,ESE,114,16.0,-999.0,60,0.00,,,-99.99,,2013-04-20 23:42:00,
2013-04-20 18:53:00,65.0,51.0,-100.00,ESE,114,16.0,-999.0,60,0.00,,,-99.99,,2013-04-20 23:53:00,
2013-04-20 19:00:00,65.0,51.0,-100.00,ESE,114,14.0,-999.0,60,0.00,,,-99.99,,2013-04-21 00:00:00,
2013-04-20 19:22:00,65.0,51.0,-100.00,ESE,114,14.0,-999.0,60,0.00,,,-99.99,,2013-04-21 00:22:00,
2013-04-20 19:32:00,65.0,51.0,-100.00,ESE,114,14.0,-999.0,60,0.00,,,-99.99,,2013-04-21 00:32:00,
2013-04-20 19:42:00,65.0,51.0,-100.00,ESE,114,14.0,-999.0,60,0.00,,,-99.99,,2013-04-21 00:42:00,
2013-04-20 19:52:00,65.0,51.0,-100.00,ESE,114,14.0,-999.0,60,0.00,,,-99.99,,2013-04-21 00:52:00,
2013-04-20 20:00:00,65.0,53.0,-100.00,ESE,107,15.0,-999.0,65,0.00,,,-99.99,,2013-04-21 01:00:00,
2013-04-20 20:21:00,65.0,53.0,-100.00,ESE,107,15.0,-999.0,65,0.00,,,-99.99,,2013-04-21 01:21:00,
2013-04-20 20:32:00,65.0,53.0,-100.00,ESE,107,15.0,-999.0,65,0.00,,,-99.99,,2013-04-21 01:32:00,
2013-04-20 20:42:00,65.0,53.0,-100.00,ESE,107,15.0,-999.0,65,0.00,,,-99.99,,2013-04-21 01:42:00,
2013-04-20 20:52:00,65.0,53.0,-100.00,ESE,107,15.0,-999.0,65,0.00,,,-99.99,,2013-04-21 01:52:00,
2013-04-20 21:00:00,65.0,55.0,-100.00,ESE,106,17.0,-999.0,69,0.00,,,-99.99,,2013-04-21 02:00:00,
2013-04-20 21:22:00,65.0,55.0,-100.00,ESE,106,17.0,-999.0,69,0.00,,,-99.99,,2013-04-21 02:22:00,
2013-04-20 21:32:00,65.0,55.0,-100.00,ESE,106,17.0,-999.0,69,0.00,,,-99.99,,2013-04-21 02:32:00,
2013-04-20 21:42:00,65.0,55.0,-100.00,ESE,106,17.0,-999.0,69,0.00,,,-99.99,,2013-04-21 02:42:00,
2013-04-20 21:52:00,65.0,55.0,-100.00,ESE,106,17.0,-999.0,69,0.00,,,-99.99,,2013-04-21 02:52:00,
2013-04-20 22:00:00,65.0,55.0,-100.00,ESE,104,16.0,-999.0,69,0.00,,,-99.99,,2013-04-21 03:00:00,
2013-04-20 22:21:00,65.0,55.0,-100.00,ESE,104,16.0,-999.0,69,0.00,,,-99.99,,2013-04-21 03:21:00,
2013-04-20 22:33:00,65.0,55.0,-100.00,ESE,104,16.0,-999.0,69,0.00,,,-99.99,,2013-04-21 03:33:00,
2013-04-20 22:42:00,65.0,55.0,-100.00,ESE,104,16.0,-999.0,69,0.00,,,-99.99,,2013-04-21 03:42:00,
2013-04-20 22:52:00,65.0,55.0,-100.00,ESE,104,16.0,-999.0,69,0.00,,,-99.99,,2013-04-21 03:52:00,
2013-04-20 23:00:00,66.0,54.0,-100.00,ESE,117,16.0,-999.0,66,0.00,,,-99.99,,2013-04-21 04:00:00,
2013-04-20 23:23:00,66.0,54.0,-100.00,ESE,117,16.0,-999.0,66,0.00,,,-99.99,,2013-04-21 04:23:00,
2013-04-20 23:33:00,66.0,54.0,-100.00,ESE,117,16.0,-999.0,66,0.00,,,-99.99,,2013-04-21 04:33:00,
2013-04-20 23:42:00,66.0,54.0,-100.00,ESE,117,16.0,-999.0,66,0.00,,,-99.99,,2013-04-21 04:42:00,
2013-04-20 23:53:00,66.0,54.0,-100.00,ESE,117,16.0,-999.0,66,0.00,,,-99.99,,2013-04-21 04:53:00,